Time;durP1;ratioP1;P1;durP2;ratioP2;P2;SDS_P1;SDS_P2;PMS_P1;PMS_P2;Temp;Humidity;BMP_temperature;BMP_pressure;BME280_temperature;BME280_humidity;BME280_pressure;Samples;Min_cycle;Max_cycle;Signal;HPM_P1;HPM_P2
2022/03/15 00:01:30;0.00;0.00;0.62;0.00;0.00;0.62;3.33;3.00;;;23.80;20.50;;;;;;2231772;62;20451;-59
2022/03/15 00:04:15;0.00;0.00;0.62;0.00;0.00;0.62;3.43;2.83;;;23.80;20.50;;;;;;2232289;62;20419;-57
2022/03/15 00:06:59;0.00;0.00;0.62;0.00;0.00;0.62;4.03;3.63;;;23.80;20.50;;;;;;2231467;62;20920;-55
2022/03/15 00:09:44;0.00;0.00;0.62;0.00;0.00;0.62;3.83;3.13;;;23.80;20.50;;;;;;2231784;62;20443;-56
2022/03/15 00:12:29;0.00;0.00;0.62;0.00;0.00;0.62;5.30;3.07;;;23.80;20.50;;;;;;2232145;62;20768;-58
2022/03/15 00:15:15;0.00;0.00;0.62;0.00;0.00;0.62;4.27;3.50;;;23.70;20.50;;;;;;2231610;62;20451;-56
2022/03/15 00:18:00;0.00;0.00;0.62;0.00;0.00;0.62;5.13;3.90;;;23.70;20.50;;;;;;2231899;62;20427;-52
2022/03/15 00:20:45;0.00;0.00;0.62;0.00;0.00;0.62;4.93;4.13;;;23.70;20.50;;;;;;2231241;62;20467;-55
2022/03/15 00:23:31;0.00;0.00;0.62;0.00;0.00;0.62;3.40;3.10;;;23.70;20.50;;;;;;2232055;62;20445;-51
2022/03/15 00:26:15;0.00;0.00;0.62;0.00;0.00;0.62;4.20;3.23;;;23.70;20.50;;;;;;2231594;62;20375;-54
2022/03/15 00:29:00;0.00;0.00;0.62;0.00;0.00;0.62;4.27;3.87;;;23.60;20.50;;;;;;2231370;62;20435;-50
2022/03/15 00:31:46;0.00;0.00;0.62;0.00;0.00;0.62;4.50;3.93;;;23.70;20.60;;;;;;2232108;62;20407;-56
2022/03/15 00:34:30;0.00;0.00;0.62;0.00;0.00;0.62;4.57;3.73;;;23.60;20.50;;;;;;2232078;62;20793;-52
2022/03/15 00:37:15;0.00;0.00;0.62;0.00;0.00;0.62;4.87;4.27;;;23.60;20.60;;;;;;2232067;62;20366;-55
2022/03/15 00:40:00;0.00;0.00;0.62;0.00;0.00;0.62;5.50;4.23;;;23.60;20.60;;;;;;2231238;62;20435;-55
2022/03/15 00:42:47;0.00;0.00;0.62;0.00;0.00;0.62;5.13;4.73;;;23.60;20.60;;;;;;2231735;62;20755;-53
2022/03/15 00:45:33;0.00;0.00;0.62;0.00;0.00;0.62;5.30;4.53;;;23.60;20.60;;;;;;2232020;62;20831;-53
2022/03/15 00:48:19;0.00;0.00;0.62;0.00;0.00;0.62;5.37;4.67;;;23.50;20.60;;;;;;2232737;62;20893;-52
2022/03/15 00:51:04;0.00;0.00;0.62;0.00;0.00;0.62;5.60;4.43;;;23.50;20.50;;;;;;2231822;62;20383;-58
2022/03/15 00:53:48;0.00;0.00;0.62;0.00;0.00;0.62;5.50;5.00;;;23.50;20.60;;;;;;2232714;62;20391;-55
2022/03/15 00:56:33;0.00;0.00;0.62;0.00;0.00;0.62;6.20;4.77;;;23.50;20.60;;;;;;2232330;62;20375;-54
2022/03/15 00:59:19;0.00;0.00;0.62;0.00;0.00;0.62;5.00;4.50;;;23.50;20.60;;;;;;2232230;62;20404;-52
2022/03/15 01:02:04;0.00;0.00;0.62;0.00;0.00;0.62;6.07;4.87;;;23.40;20.50;;;;;;2232119;62;20506;-52
2022/03/15 01:04:50;0.00;0.00;0.62;0.00;0.00;0.62;6.27;5.40;;;23.40;21.10;;;;;;2232212;62;20835;-51
2022/03/15 01:07:35;0.00;0.00;0.62;0.00;0.00;0.62;5.83;5.27;;;23.40;20.60;;;;;;2232810;62;20399;-57
2022/03/15 01:10:20;0.00;0.00;0.62;0.00;0.00;0.62;6.23;5.63;;;23.30;20.50;;;;;;2232432;62;20415;-53
2022/03/15 01:13:05;0.00;0.00;0.62;0.00;0.00;0.62;5.43;4.93;;;23.30;20.50;;;;;;2231587;62;20896;-52
2022/03/15 01:15:51;0.00;0.00;0.62;0.00;0.00;0.62;6.80;5.30;;;23.30;20.60;;;;;;2232584;62;20408;-53
2022/03/15 01:18:36;0.00;0.00;0.62;0.00;0.00;0.62;5.60;5.00;;;23.30;20.50;;;;;;2232541;62;20419;-57
2022/03/15 01:21:22;0.00;0.00;0.62;0.00;0.00;0.62;6.60;5.07;;;23.30;20.60;;;;;;2232007;62;20399;-56
2022/03/15 01:24:07;0.00;0.00;0.62;0.00;0.00;0.62;5.57;5.07;;;23.20;20.50;;;;;;2232735;62;20902;-55
2022/03/15 01:26:53;0.00;0.00;0.62;0.00;0.00;0.62;5.67;5.00;;;23.20;20.60;;;;;;2232365;62;20911;-57
2022/03/15 01:29:38;0.00;0.00;0.62;0.00;0.00;0.62;5.67;5.07;;;23.20;20.60;;;;;;2231995;62;20462;-55
2022/03/15 01:32:22;0.00;0.00;0.62;0.00;0.00;0.62;5.63;5.00;;;23.10;20.60;;;;;;2232269;62;20403;-53
2022/03/15 01:35:08;0.00;0.00;0.62;0.00;0.00;0.62;6.77;5.60;;;23.10;20.60;;;;;;2231997;62;20375;-53
2022/03/15 01:37:54;0.00;0.00;0.62;0.00;0.00;0.62;6.17;5.30;;;23.10;20.60;;;;;;2232206;62;20363;-53
2022/03/15 01:40:39;0.00;0.00;0.62;0.00;0.00;0.62;5.47;4.90;;;23.10;20.60;;;;;;2232219;62;20968;-54
2022/03/15 01:43:25;0.00;0.00;0.62;0.00;0.00;0.62;6.57;5.10;;;23.10;20.70;;;;;;2231639;62;20376;-55
2022/03/15 01:46:12;0.00;0.00;0.62;0.00;0.00;0.62;8.03;5.00;;;23.10;20.70;;;;;;2232007;62;20765;-53
2022/03/15 01:48:56;0.00;0.00;0.62;0.00;0.00;0.62;7.07;5.20;;;23.10;20.80;;;;;;2232007;62;20375;-53
2022/03/15 01:51:42;0.00;0.00;0.62;0.00;0.00;0.62;7.50;5.43;;;23.00;20.70;;;;;;2232281;62;20451;-52
2022/03/15 01:54:29;0.00;0.00;0.62;0.00;0.00;0.62;5.57;4.40;;;23.00;20.70;;;;;;2232644;62;20380;-53
2022/03/15 01:57:14;0.00;0.00;0.62;0.00;0.00;0.62;5.43;4.93;;;23.00;20.80;;;;;;2231700;62;20370;-53
2022/03/15 02:00:00;0.00;0.00;0.62;0.00;0.00;0.62;5.03;4.43;;;23.00;20.90;;;;;;2231921;62;20483;-53
2022/03/15 02:02:45;0.00;0.00;0.62;0.00;0.00;0.62;6.20;5.60;;;22.90;20.80;;;;;;2232068;62;20779;-54
2022/03/15 02:05:30;0.00;0.00;0.62;0.00;0.00;0.62;6.00;5.13;;;22.90;20.80;;;;;;2232033;62;20785;-56
2022/03/15 02:08:16;0.00;0.00;0.62;0.00;0.00;0.62;6.40;5.77;;;22.90;20.80;;;;;;2232380;62;20372;-51
2022/03/15 02:11:02;0.00;0.00;0.62;0.00;0.00;0.62;4.80;4.37;;;22.90;20.80;;;;;;2231383;62;20528;-59
2022/03/15 02:13:47;0.00;0.00;0.62;0.00;0.00;0.62;7.10;5.33;;;22.90;20.80;;;;;;2232571;62;20382;-52
2022/03/15 02:16:33;0.00;0.00;0.62;0.00;0.00;0.62;5.70;5.17;;;22.90;20.80;;;;;;2232579;62;20460;-55
2022/03/15 02:19:17;0.00;0.00;0.62;0.00;0.00;0.62;5.17;4.67;;;22.90;20.80;;;;;;2231630;62;20399;-51
2022/03/15 02:22:04;0.00;0.00;0.62;0.00;0.00;0.62;5.30;4.57;;;22.80;21.20;;;;;;2232290;62;20479;-57
2022/03/15 02:24:48;0.00;0.00;0.62;0.00;0.00;0.62;5.90;4.87;;;22.80;20.70;;;;;;2232489;62;20375;-51
2022/03/15 02:27:33;0.00;0.00;0.62;0.00;0.00;0.62;5.57;4.57;;;22.80;20.70;;;;;;2231902;62;20386;-55
2022/03/15 02:30:20;0.00;0.00;0.62;0.00;0.00;0.62;5.90;5.30;;;22.80;20.70;;;;;;2225666;62;20541;-52
2022/03/15 02:33:05;0.00;0.00;0.62;0.00;0.00;0.62;6.90;5.80;;;22.80;20.70;;;;;;2224639;62;20373;-56
2022/03/15 02:35:50;0.00;0.00;0.62;0.00;0.00;0.62;6.30;5.03;;;22.80;20.70;;;;;;2226792;62;20768;-54
2022/03/15 02:38:36;0.00;0.00;0.62;0.00;0.00;0.62;5.73;5.13;;;22.70;20.70;;;;;;2224579;62;20401;-53
2022/03/15 02:41:20;0.00;0.00;0.62;0.00;0.00;0.62;6.00;5.27;;;22.70;20.70;;;;;;2223873;62;20401;-51
2022/03/15 02:44:06;0.00;0.00;0.62;0.00;0.00;0.62;6.10;5.40;;;22.70;20.70;;;;;;2225029;62;20400;-52
2022/03/15 02:46:51;0.00;0.00;0.62;0.00;0.00;0.62;7.00;5.20;;;22.70;20.70;;;;;;2225363;62;20389;-52
2022/03/15 02:49:36;0.00;0.00;0.62;0.00;0.00;0.62;7.80;6.00;;;22.70;20.70;;;;;;2224890;62;20396;-53
2022/03/15 02:52:20;0.00;0.00;0.62;0.00;0.00;0.62;6.27;5.53;;;22.70;20.70;;;;;;2226321;62;20442;-59
2022/03/15 02:55:08;0.00;0.00;0.62;0.00;0.00;0.62;7.40;5.73;;;22.60;20.60;;;;;;2224691;62;20461;-52
2022/03/15 02:57:53;0.00;0.00;0.62;0.00;0.00;0.62;5.60;5.10;;;22.60;20.60;;;;;;2224763;62;20396;-57
2022/03/15 03:00:38;0.00;0.00;0.62;0.00;0.00;0.62;6.00;5.40;;;22.60;20.60;;;;;;2224420;62;20397;-52
2022/03/15 03:03:23;0.00;0.00;0.62;0.00;0.00;0.62;5.93;5.17;;;22.60;20.60;;;;;;2223483;62;20385;-51
2022/03/15 03:06:08;0.00;0.00;0.62;0.00;0.00;0.62;7.97;5.80;;;22.60;20.60;;;;;;2224494;62;20388;-55
2022/03/15 03:08:52;0.00;0.00;0.62;0.00;0.00;0.62;6.70;5.63;;;22.50;20.50;;;;;;2224217;62;20369;-51
2022/03/15 03:11:38;0.00;0.00;0.62;0.00;0.00;0.62;6.20;5.60;;;22.50;20.50;;;;;;2223904;62;20409;-54
2022/03/15 03:14:24;0.00;0.00;0.62;0.00;0.00;0.62;6.10;5.33;;;22.50;20.50;;;;;;2223855;62;21183;-50
2022/03/15 03:17:08;0.00;0.00;0.62;0.00;0.00;0.62;6.37;5.60;;;22.50;20.50;;;;;;2224438;62;20430;-52
2022/03/15 03:19:53;0.00;0.00;0.62;0.00;0.00;0.62;6.00;5.10;;;22.50;20.60;;;;;;2223676;62;20921;-52
2022/03/15 03:22:38;0.00;0.00;0.62;0.00;0.00;0.62;5.90;5.13;;;22.50;20.70;;;;;;2224395;62;20410;-52
2022/03/15 03:25:24;0.00;0.00;0.62;0.00;0.00;0.62;6.10;5.50;;;22.50;20.70;;;;;;2223765;62;20982;-55
2022/03/15 03:28:12;0.00;0.00;0.62;0.00;0.00;0.62;6.77;5.57;;;22.40;20.60;;;;;;2224356;62;20894;-54
2022/03/15 03:30:56;0.00;0.00;0.62;0.00;0.00;0.62;4.57;4.17;;;22.40;20.70;;;;;;2224289;62;20405;-53
2022/03/15 03:33:41;0.00;0.00;0.62;0.00;0.00;0.62;6.23;5.60;;;22.40;20.70;;;;;;2223861;62;20431;-56
2022/03/15 03:36:26;0.00;0.00;0.62;0.00;0.00;0.62;6.23;5.50;;;22.40;20.80;;;;;;2224253;62;20377;-55
2022/03/15 03:39:11;0.00;0.00;0.62;0.00;0.00;0.62;6.50;5.43;;;22.40;20.80;;;;;;2224292;62;20421;-56
2022/03/15 03:41:56;0.00;0.00;0.62;0.00;0.00;0.62;5.27;4.77;;;22.40;20.80;;;;;;2223686;62;20401;-58
2022/03/15 03:44:42;0.00;0.00;0.62;0.00;0.00;0.62;7.13;6.43;;;22.30;20.70;;;;;;2224387;62;20408;-56
2022/03/15 03:47:27;0.00;0.00;0.62;0.00;0.00;0.62;6.00;5.40;;;22.30;20.80;;;;;;2223753;62;20409;-59
2022/03/15 03:50:13;0.00;0.00;0.62;0.00;0.00;0.62;6.03;5.50;;;22.30;20.80;;;;;;2224031;62;20422;-56
2022/03/15 03:52:58;0.00;0.00;0.62;0.00;0.00;0.62;6.37;5.60;;;22.30;20.80;;;;;;2224157;62;20384;-59
2022/03/15 03:55:42;0.00;0.00;0.62;0.00;0.00;0.62;6.47;5.67;;;22.30;20.80;;;;;;2223754;62;20459;-52
2022/03/15 03:58:27;0.00;0.00;0.62;0.00;0.00;0.62;6.87;5.40;;;22.30;20.80;;;;;;2224409;62;20899;-57
2022/03/15 04:01:12;0.00;0.00;0.62;0.00;0.00;0.62;7.10;5.53;;;22.30;20.80;;;;;;2223979;62;20397;-53
2022/03/15 04:04:02;0.00;0.00;0.62;0.00;0.00;0.62;6.00;5.40;;;22.20;20.80;;;;;;2223625;62;20377;-59
2022/03/15 04:06:47;0.00;0.00;0.62;0.00;0.00;0.62;6.60;5.40;;;22.20;20.80;;;;;;2223835;62;20393;-58
2022/03/15 04:09:31;0.00;0.00;0.62;0.00;0.00;0.62;6.80;6.00;;;22.20;20.90;;;;;;2223411;62;20377;-57
2022/03/15 04:12:16;0.00;0.00;0.62;0.00;0.00;0.62;6.33;5.73;;;22.20;20.90;;;;;;2224139;62;20421;-58
2022/03/15 04:15:01;0.00;0.00;0.62;0.00;0.00;0.62;6.40;5.70;;;22.20;20.90;;;;;;2224271;62;20437;-57
2022/03/15 04:17:47;0.00;0.00;0.62;0.00;0.00;0.62;7.03;4.60;;;22.20;20.90;;;;;;2223725;62;20378;-56
2022/03/15 04:20:32;0.00;0.00;0.62;0.00;0.00;0.62;6.50;5.70;;;22.20;20.90;;;;;;2223730;62;20975;-59
2022/03/15 04:23:17;0.00;0.00;0.62;0.00;0.00;0.62;5.10;4.63;;;22.20;20.90;;;;;;2224359;62;20451;-58
2022/03/15 04:26:02;0.00;0.00;0.62;0.00;0.00;0.62;5.40;4.90;;;22.10;20.90;;;;;;2223848;62;20372;-59
2022/03/15 04:28:47;0.00;0.00;0.62;0.00;0.00;0.62;5.87;5.27;;;22.10;20.80;;;;;;2224443;62;20380;-58
2022/03/15 04:31:32;0.00;0.00;0.62;0.00;0.00;0.62;8.07;5.30;;;22.10;20.80;;;;;;2224335;62;20384;-56
2022/03/15 04:34:18;0.00;0.00;0.62;0.00;0.00;0.62;5.47;4.97;;;22.10;20.80;;;;;;2224577;62;20382;-55
2022/03/15 04:37:03;0.00;0.00;0.62;0.00;0.00;0.62;7.23;5.70;;;22.10;20.80;;;;;;2224516;62;20412;-57
2022/03/15 04:39:47;0.00;0.00;0.62;0.00;0.00;0.62;6.07;5.23;;;22.10;20.90;;;;;;2223663;62;20441;-59
2022/03/15 04:42:32;0.00;0.00;0.62;0.00;0.00;0.62;6.47;5.80;;;22.00;20.80;;;;;;2224825;62;20940;-58
2022/03/15 04:45:16;0.00;0.00;0.62;0.00;0.00;0.62;5.40;4.90;;;22.00;20.80;;;;;;2225273;62;20944;-58
2022/03/15 04:48:01;0.00;0.00;0.62;0.00;0.00;0.62;6.60;5.90;;;22.00;20.80;;;;;;2224088;62;20943;-57
2022/03/15 04:50:47;0.00;0.00;0.62;0.00;0.00;0.62;6.20;5.60;;;22.00;20.80;;;;;;2223680;62;20530;-57
2022/03/15 04:53:32;0.00;0.00;0.62;0.00;0.00;0.62;7.50;6.30;;;22.00;20.70;;;;;;2224975;62;20420;-59
2022/03/15 04:56:16;0.00;0.00;0.62;0.00;0.00;0.62;6.80;6.20;;;22.00;20.80;;;;;;2228092;62;20424;-57
2022/03/15 04:59:01;0.00;0.00;0.62;0.00;0.00;0.62;5.60;5.10;;;22.00;20.80;;;;;;2227870;62;20372;-57
2022/03/15 05:01:45;0.00;0.00;0.62;0.00;0.00;0.62;6.07;5.47;;;22.00;20.80;;;;;;2227347;62;20440;-58
2022/03/15 05:04:30;0.00;0.00;0.62;0.00;0.00;0.62;7.70;5.50;;;21.90;20.70;;;;;;2227994;62;20424;-57
2022/03/15 05:07:16;0.00;0.00;0.62;0.00;0.00;0.62;7.23;6.40;;;21.90;20.70;;;;;;2228124;62;20375;-57
2022/03/15 05:13:07;0.00;0.00;0.62;0.00;0.00;0.62;7.40;6.13;;;21.90;20.70;;;;;;2227730;62;20371;-60
2022/03/15 05:15:52;0.00;0.00;0.62;0.00;0.00;0.62;6.60;5.90;;;21.80;20.70;;;;;;2227572;62;20421;-58
2022/03/15 05:18:40;0.00;0.00;0.62;0.00;0.00;0.62;6.37;5.77;;;21.80;20.70;;;;;;2227898;62;20376;-55
2022/03/15 05:21:25;0.00;0.00;0.62;0.00;0.00;0.62;6.20;4.90;;;21.80;20.70;;;;;;2227505;62;20443;-52
2022/03/15 05:24:10;0.00;0.00;0.62;0.00;0.00;0.62;6.40;5.77;;;21.80;20.70;;;;;;2227337;62;20927;-57
2022/03/15 05:26:57;0.00;0.00;0.62;0.00;0.00;0.62;6.10;4.90;;;21.80;20.80;;;;;;2228636;62;21013;-53
2022/03/15 05:29:42;0.00;0.00;0.62;0.00;0.00;0.62;7.33;6.30;;;21.80;20.80;;;;;;2227151;62;20511;-58
2022/03/15 05:32:27;0.00;0.00;0.62;0.00;0.00;0.62;6.07;5.30;;;21.70;20.80;;;;;;2227670;62;20415;-54
2022/03/15 05:35:11;0.00;0.00;0.62;0.00;0.00;0.62;6.27;5.10;;;21.70;20.80;;;;;;2228209;62;20425;-58
2022/03/15 05:37:56;0.00;0.00;0.62;0.00;0.00;0.62;6.63;5.70;;;21.70;20.80;;;;;;2228305;62;20372;-58
2022/03/15 05:40:43;0.00;0.00;0.62;0.00;0.00;0.62;5.30;4.73;;;21.70;20.90;;;;;;2227128;62;20396;-58
2022/03/15 05:43:27;0.00;0.00;0.62;0.00;0.00;0.62;6.30;5.70;;;21.70;20.80;;;;;;2228184;62;20380;-55
2022/03/15 05:46:13;0.00;0.00;0.62;0.00;0.00;0.62;8.00;6.47;;;21.70;20.80;;;;;;2227860;62;20468;-52
2022/03/15 05:48:58;0.00;0.00;0.62;0.00;0.00;0.62;6.57;5.60;;;21.70;20.80;;;;;;2228137;62;20376;-58
2022/03/15 05:51:42;0.00;0.00;0.62;0.00;0.00;0.62;6.83;6.13;;;21.60;20.80;;;;;;2228346;62;20425;-58
2022/03/15 05:54:27;0.00;0.00;0.62;0.00;0.00;0.62;6.20;5.57;;;21.60;20.80;;;;;;2227851;62;20873;-62
2022/03/15 05:57:13;0.00;0.00;0.62;0.00;0.00;0.62;8.37;7.57;;;21.60;20.80;;;;;;2230777;62;20380;-54
2022/03/15 06:00:00;0.00;0.00;0.62;0.00;0.00;0.62;8.00;7.17;;;21.50;20.70;;;;;;2228295;62;20927;-57
2022/03/15 06:02:46;0.00;0.00;0.62;0.00;0.00;0.62;6.20;5.60;;;21.50;20.70;;;;;;2228211;62;20626;-54
2022/03/15 06:05:31;0.00;0.00;0.62;0.00;0.00;0.62;5.53;4.70;;;21.50;20.80;;;;;;2228150;62;20583;-55
2022/03/15 06:08:15;0.00;0.00;0.62;0.00;0.00;0.62;5.33;4.83;;;21.40;20.80;;;;;;2227830;62;20372;-58
2022/03/15 06:11:02;0.00;0.00;0.62;0.00;0.00;0.62;5.17;4.67;;;21.40;20.80;;;;;;2227749;62;20383;-57
2022/03/15 06:13:49;0.00;0.00;0.62;0.00;0.00;0.62;4.97;4.47;;;21.50;21.00;;;;;;2227652;62;20416;-54
2022/03/15 06:16:33;0.00;0.00;0.62;0.00;0.00;0.62;4.90;4.40;;;21.40;20.90;;;;;;2227551;62;20408;-55
2022/03/15 06:19:18;0.00;0.00;0.62;0.00;0.00;0.62;6.60;4.07;;;21.50;21.00;;;;;;2227880;62;20457;-58
2022/03/15 06:22:03;0.00;0.00;0.62;0.00;0.00;0.62;3.97;3.27;;;21.50;21.00;;;;;;2227900;62;20400;-56
2022/03/15 06:24:48;0.00;0.00;0.62;0.00;0.00;0.62;3.30;3.00;;;21.50;21.00;;;;;;2227647;62;20978;-55
2022/03/15 06:27:33;0.00;0.00;0.62;0.00;0.00;0.62;3.37;2.83;;;21.50;21.10;;;;;;2227772;62;20437;-56
2022/03/15 06:30:21;0.00;0.00;0.62;0.00;0.00;0.62;4.07;3.67;;;21.50;21.10;;;;;;2226930;62;20448;-56
2022/03/15 06:33:06;0.00;0.00;0.62;0.00;0.00;0.62;3.37;3.07;;;21.50;21.10;;;;;;2227936;62;20824;-53
2022/03/15 06:35:50;0.00;0.00;0.62;0.00;0.00;0.62;3.10;2.80;;;21.50;21.10;;;;;;2228016;62;20368;-56
2022/03/15 06:38:35;0.00;0.00;0.62;0.00;0.00;0.62;3.27;2.90;;;21.50;21.10;;;;;;2227656;62;20501;-56
2022/03/15 06:41:20;0.00;0.00;0.62;0.00;0.00;0.62;2.90;2.60;;;21.50;21.10;;;;;;2227954;62;20765;-55
2022/03/15 06:44:05;0.00;0.00;0.62;0.00;0.00;0.62;3.13;2.83;;;21.50;21.10;;;;;;2227859;62;20368;-56
2022/03/15 06:46:51;0.00;0.00;0.62;0.00;0.00;0.62;3.37;3.07;;;21.60;21.10;;;;;;2229918;62;20425;-54
2022/03/15 06:49:36;0.00;0.00;0.62;0.00;0.00;0.62;3.57;2.83;;;21.60;21.10;;;;;;2227735;62;20380;-56
2022/03/15 06:52:20;0.00;0.00;0.62;0.00;0.00;0.62;3.27;2.77;;;21.60;21.10;;;;;;2227636;62;20432;-55
2022/03/15 06:55:06;0.00;0.00;0.62;0.00;0.00;0.62;3.07;2.10;;;21.60;21.10;;;;;;2227843;62;20368;-57
2022/03/15 06:57:51;0.00;0.00;0.62;0.00;0.00;0.62;2.43;2.23;;;21.60;21.10;;;;;;2227992;62;20407;-56
2022/03/15 07:00:37;0.00;0.00;0.62;0.00;0.00;0.62;3.03;2.40;;;21.60;21.10;;;;;;2227367;62;20387;-55
2022/03/15 07:03:23;0.00;0.00;0.62;0.00;0.00;0.62;2.67;2.30;;;21.70;21.10;;;;;;2228047;62;20393;-56
2022/03/15 07:06:08;0.00;0.00;0.62;0.00;0.00;0.62;2.70;2.43;;;21.60;21.00;;;;;;2227874;62;20573;-56
2022/03/15 07:08:52;0.00;0.00;0.62;0.00;0.00;0.62;3.33;2.83;;;21.60;21.00;;;;;;2227541;62;20909;-55
2022/03/15 07:11:38;0.00;0.00;0.62;0.00;0.00;0.62;3.97;2.40;;;21.70;21.10;;;;;;2226636;62;20568;-55
2022/03/15 07:14:23;0.00;0.00;0.62;0.00;0.00;0.62;2.73;2.40;;;21.70;21.10;;;;;;2278807;58;20429;-58
2022/03/15 07:17:08;0.00;0.00;0.62;0.00;0.00;0.62;2.53;2.33;;;21.70;21.60;;;;;;2228138;62;20373;-56
2022/03/15 07:19:54;0.00;0.00;0.62;0.00;0.00;0.62;2.60;2.00;;;21.70;21.10;;;;;;2228151;62;20972;-54
2022/03/15 07:22:39;0.00;0.00;0.62;0.00;0.00;0.62;2.63;2.30;;;21.70;21.10;;;;;;2227446;62;20400;-55
2022/03/15 07:25:24;0.00;0.00;0.62;0.00;0.00;0.62;2.57;2.10;;;21.70;21.00;;;;;;2227606;62;20476;-55
2022/03/15 07:28:09;0.00;0.00;0.62;0.00;0.00;0.62;3.10;2.20;;;21.70;21.00;;;;;;2235765;59;20516;-51
2022/03/15 07:30:53;0.00;0.00;0.62;0.00;0.00;0.62;3.00;2.13;;;21.70;21.00;;;;;;2226964;62;20392;-52
2022/03/15 07:33:38;0.00;0.00;0.62;0.00;0.00;0.62;2.57;2.37;;;21.70;21.00;;;;;;2227989;62;20449;-52
2022/03/15 07:36:24;0.00;0.00;0.62;0.00;0.00;0.62;2.40;1.90;;;21.80;21.10;;;;;;2227763;62;20376;-54
2022/03/15 07:39:08;0.00;0.00;0.62;0.00;0.00;0.62;2.50;2.20;;;21.70;21.00;;;;;;2227763;62;20917;-53
2022/03/15 07:41:54;0.00;0.00;0.62;0.00;0.00;0.62;2.57;2.03;;;21.80;21.00;;;;;;2227786;62;20388;-54
2022/03/15 07:44:42;0.00;0.00;0.62;0.00;0.00;0.62;2.30;1.97;;;21.80;21.00;;;;;;2226870;62;20376;-53
2022/03/15 07:47:27;0.00;0.00;0.62;0.00;0.00;0.62;1.93;1.73;;;21.80;21.00;;;;;;2227911;62;20409;-55
2022/03/15 07:50:11;0.00;0.00;0.62;0.00;0.00;0.62;2.47;2.00;;;21.80;21.00;;;;;;2227542;62;20396;-55
2022/03/15 07:52:58;0.00;0.00;0.62;0.00;0.00;0.62;2.40;2.00;;;21.80;21.00;;;;;;2227323;62;20479;-54
2022/03/15 07:55:42;0.00;0.00;0.62;0.00;0.00;0.62;2.90;2.30;;;21.80;21.00;;;;;;2227435;62;20393;-54
2022/03/15 07:58:27;0.00;0.00;0.62;0.00;0.00;0.62;2.50;2.03;;;21.80;20.90;;;;;;2227936;62;20372;-53
2022/03/15 08:01:12;0.00;0.00;0.62;0.00;0.00;0.62;1.90;1.63;;;21.90;21.00;;;;;;2227037;62;20505;-53
2022/03/15 08:03:56;0.00;0.00;0.62;0.00;0.00;0.62;2.10;1.90;;;21.90;21.00;;;;;;2227850;62;20372;-53
2022/03/15 08:06:40;0.00;0.00;0.62;0.00;0.00;0.62;1.97;1.53;;;21.90;21.00;;;;;;2227319;62;20364;-53
2022/03/15 08:09:27;0.00;0.00;0.62;0.00;0.00;0.62;1.90;1.50;;;21.90;21.00;;;;;;2227661;62;20375;-52
2022/03/15 08:12:11;0.00;0.00;0.62;0.00;0.00;0.62;2.30;1.93;;;21.90;20.90;;;;;;2227664;62;20372;-56
2022/03/15 08:14:56;0.00;0.00;0.62;0.00;0.00;0.62;2.33;1.80;;;21.90;20.90;;;;;;2227432;62;20913;-55
2022/03/15 08:17:41;0.00;0.00;0.62;0.00;0.00;0.62;2.60;1.77;;;22.00;21.00;;;;;;2227812;62;20425;-51
2022/03/15 08:20:32;0.00;0.00;0.62;0.00;0.00;0.62;2.10;1.50;;;22.00;21.00;;;;;;2227908;62;20594;-53
2022/03/15 08:23:18;0.00;0.00;0.62;0.00;0.00;0.62;2.20;2.00;;;22.00;21.00;;;;;;2227447;62;20373;-56
2022/03/15 08:26:04;0.00;0.00;0.62;0.00;0.00;0.62;2.17;1.97;;;22.00;21.00;;;;;;2228250;62;20384;-56
2022/03/15 08:28:49;0.00;0.00;0.62;0.00;0.00;0.62;1.90;1.60;;;22.00;20.90;;;;;;2228206;62;20400;-54
2022/03/15 08:31:34;0.00;0.00;0.62;0.00;0.00;0.62;2.30;1.70;;;22.00;20.90;;;;;;2227893;62;20384;-56
2022/03/15 08:34:18;0.00;0.00;0.62;0.00;0.00;0.62;2.10;1.60;;;22.00;20.90;;;;;;2227853;62;20428;-54
2022/03/15 08:37:03;0.00;0.00;0.62;0.00;0.00;0.62;2.10;1.70;;;22.00;20.90;;;;;;2227395;62;20372;-52
2022/03/15 08:39:48;0.00;0.00;0.62;0.00;0.00;0.62;2.00;1.70;;;22.00;20.90;;;;;;2227515;62;20918;-55
2022/03/15 08:42:34;0.00;0.00;0.62;0.00;0.00;0.62;2.30;2.00;;;22.00;20.90;;;;;;2227593;62;20444;-56
2022/03/15 08:45:18;0.00;0.00;0.62;0.00;0.00;0.62;2.07;1.73;;;22.10;20.90;;;;;;2227423;62;20396;-56
2022/03/15 08:48:04;0.00;0.00;0.62;0.00;0.00;0.62;2.00;1.73;;;22.10;20.90;;;;;;2227819;62;20368;-54
2022/03/15 08:50:48;0.00;0.00;0.62;0.00;0.00;0.62;2.37;1.80;;;22.10;20.90;;;;;;2227341;62;20392;-56
2022/03/15 08:53:33;0.00;0.00;0.62;0.00;0.00;0.62;1.90;1.50;;;22.10;20.90;;;;;;2227631;62;20372;-53
2022/03/15 08:56:18;0.00;0.00;0.62;0.00;0.00;0.62;1.90;1.60;;;22.10;20.90;;;;;;2227742;62;20914;-52
2022/03/15 08:59:03;0.00;0.00;0.62;0.00;0.00;0.62;2.73;1.97;;;22.10;20.80;;;;;;2227334;62;20375;-53
2022/03/15 09:01:48;0.00;0.00;0.62;0.00;0.00;0.62;1.70;1.40;;;22.20;20.90;;;;;;2227357;62;20463;-52
2022/03/15 09:04:33;0.00;0.00;0.62;0.00;0.00;0.62;2.07;1.73;;;22.20;20.90;;;;;;2227735;62;20827;-51
2022/03/15 09:07:17;0.00;0.00;0.62;0.00;0.00;0.62;2.20;1.80;;;22.20;20.80;;;;;;2227874;62;20797;-58
2022/03/15 09:10:03;0.00;0.00;0.62;0.00;0.00;0.62;2.00;1.60;;;22.20;20.80;;;;;;2228193;62;20391;-54
2022/03/15 09:12:49;0.00;0.00;0.62;0.00;0.00;0.62;2.20;1.80;;;22.20;20.80;;;;;;2228020;62;20368;-56
2022/03/15 09:15:35;0.00;0.00;0.62;0.00;0.00;0.62;1.90;1.30;;;22.20;20.80;;;;;;2228280;62;20558;-54
2022/03/15 09:18:20;0.00;0.00;0.62;0.00;0.00;0.62;1.80;1.60;;;22.20;20.80;;;;;;2228060;62;20417;-57
2022/03/15 09:21:06;0.00;0.00;0.62;0.00;0.00;0.62;2.03;1.57;;;22.30;20.80;;;;;;2227743;62;20431;-56
2022/03/15 09:23:51;0.00;0.00;0.62;0.00;0.00;0.62;1.73;1.40;;;22.30;20.80;;;;;;2228213;62;20372;-56
2022/03/15 09:26:36;0.00;0.00;0.62;0.00;0.00;0.62;2.27;1.60;;;22.30;20.80;;;;;;2228332;62;20368;-54
2022/03/15 09:29:20;0.00;0.00;0.62;0.00;0.00;0.62;1.90;1.60;;;22.30;20.80;;;;;;2226983;62;20970;-54
2022/03/15 09:32:10;0.00;0.00;0.62;0.00;0.00;0.62;2.20;1.57;;;22.30;20.80;;;;;;2228250;62;20368;-53
2022/03/15 09:34:55;0.00;0.00;0.62;0.00;0.00;0.62;1.73;1.43;;;22.30;20.80;;;;;;2228136;62;20464;-54
2022/03/15 09:37:41;0.00;0.00;0.62;0.00;0.00;0.62;1.90;1.70;;;22.30;20.70;;;;;;2228378;62;20372;-54
2022/03/15 09:40:28;0.00;0.00;0.62;0.00;0.00;0.62;2.13;1.70;;;22.30;20.70;;;;;;2227961;62;20396;-55
2022/03/15 09:43:13;0.00;0.00;0.62;0.00;0.00;0.62;2.20;1.63;;;22.30;20.70;;;;;;2227904;62;20833;-55
2022/03/15 09:46:01;0.00;0.00;0.62;0.00;0.00;0.62;1.80;1.50;;;22.30;21.20;;;;;;2228204;62;20870;-53
2022/03/15 09:48:52;0.00;0.00;0.62;0.00;0.00;0.62;2.00;1.53;;;22.40;20.80;;;;;;2228271;62;20437;-55
2022/03/15 09:51:37;0.00;0.00;0.62;0.00;0.00;0.62;2.60;1.40;;;22.40;20.80;;;;;;2227600;62;20424;-54
2022/03/15 09:54:24;0.00;0.00;0.62;0.00;0.00;0.62;1.80;1.60;;;22.40;20.80;;;;;;2227743;62;20383;-53
2022/03/15 09:57:09;0.00;0.00;0.62;0.00;0.00;0.62;2.03;1.60;;;22.40;20.70;;;;;;2227765;62;20383;-57
2022/03/15 09:59:59;0.00;0.00;0.62;0.00;0.00;0.62;2.47;1.73;;;22.40;20.70;;;;;;2228150;62;20457;-56
2022/03/15 10:02:45;0.00;0.00;0.62;0.00;0.00;0.62;1.60;1.20;;;22.40;20.70;;;;;;2227990;62;20929;-54
2022/03/15 10:05:31;0.00;0.00;0.62;0.00;0.00;0.62;1.90;1.30;;;22.40;20.70;;;;;;2227818;62;20383;-53
2022/03/15 10:08:16;0.00;0.00;0.62;0.00;0.00;0.62;1.90;1.30;;;22.40;20.70;;;;;;2228120;62;20424;-56
2022/03/15 10:11:01;0.00;0.00;0.62;0.00;0.00;0.62;2.20;1.57;;;22.40;20.70;;;;;;2228030;62;20441;-52
2022/03/15 10:13:46;0.00;0.00;0.62;0.00;0.00;0.62;2.00;1.20;;;22.50;20.70;;;;;;2227726;62;20466;-52
2022/03/15 10:16:32;0.00;0.00;0.62;0.00;0.00;0.62;1.50;1.20;;;22.50;20.70;;;;;;2228159;62;20457;-54
2022/03/15 10:19:17;0.00;0.00;0.62;0.00;0.00;0.62;1.70;1.40;;;22.50;20.70;;;;;;2227889;62;20467;-54
2022/03/15 10:22:09;0.00;0.00;0.62;0.00;0.00;0.62;1.80;1.50;;;22.50;20.70;;;;;;2228117;62;20395;-58
2022/03/15 10:24:54;0.00;0.00;0.62;0.00;0.00;0.62;1.93;1.27;;;22.50;20.70;;;;;;2228129;62;20369;-56
2022/03/15 10:27:39;0.00;0.00;0.62;0.00;0.00;0.62;1.70;1.20;;;22.50;20.70;;;;;;2227755;62;20407;-53
2022/03/15 10:30:25;0.00;0.00;0.62;0.00;0.00;0.62;2.07;1.40;;;22.50;20.70;;;;;;2227780;62;20392;-54
2022/03/15 10:33:11;0.00;0.00;0.62;0.00;0.00;0.62;2.30;1.40;;;22.50;20.70;;;;;;2228060;62;20368;-57
2022/03/15 10:35:56;0.00;0.00;0.62;0.00;0.00;0.62;2.40;1.67;;;22.50;20.70;;;;;;2227661;62;20404;-53
2022/03/15 10:38:47;0.00;0.00;0.62;0.00;0.00;0.62;1.77;1.33;;;22.50;20.60;;;;;;2228177;62;20372;-55
2022/03/15 10:41:46;0.00;0.00;0.62;0.00;0.00;0.62;1.53;1.17;;;22.60;20.70;;;;;;2228140;62;20973;-58
2022/03/15 10:44:35;0.00;0.00;0.62;0.00;0.00;0.62;2.10;1.60;;;22.50;20.60;;;;;;2228041;62;20495;-58
2022/03/15 10:47:21;0.00;0.00;0.62;0.00;0.00;0.62;2.17;1.40;;;22.60;20.70;;;;;;2228142;62;20424;-55
2022/03/15 10:50:09;0.00;0.00;0.62;0.00;0.00;0.62;1.80;1.37;;;22.60;20.70;;;;;;2227536;62;20492;-56
2022/03/15 10:52:53;0.00;0.00;0.62;0.00;0.00;0.62;1.60;1.13;;;22.60;20.70;;;;;;2227933;62;20384;-57
2022/03/15 10:55:39;0.00;0.00;0.62;0.00;0.00;0.62;1.50;1.10;;;22.60;20.70;;;;;;2228173;62;20835;-52